createdAt,value
2024-04-30T00:04:13.414Z,4.1
2024-04-30T00:08:15.970Z,4.1
2024-04-30T00:12:19.401Z,4.1
2024-04-30T00:14:21.042Z,4.1
2024-04-30T00:18:23.471Z,4.1
2024-04-30T00:22:26.600Z,4.1
2024-04-30T00:24:27.840Z,4.1
2024-04-30T00:28:30.999Z,4.1
2024-04-30T00:30:32.782Z,4.1
2024-04-30T00:32:34.162Z,4.1
2024-04-30T00:34:35.121Z,4.1
2024-04-30T00:40:38.472Z,4.1
2024-04-30T00:46:43.402Z,4.09
2024-04-30T00:50:46.149Z,4.1
2024-04-30T00:56:51.368Z,4.1
2024-04-30T01:00:54.127Z,4.09
2024-04-30T01:02:55.174Z,4.09
2024-04-30T01:06:58.095Z,4.09
2024-04-30T01:11:01.634Z,4.1
2024-04-30T01:13:02.829Z,4.09
2024-04-30T01:17:05.740Z,4.09
2024-04-30T01:23:09.920Z,4.09
2024-04-30T01:29:14.389Z,4.09
2024-04-30T01:33:17.938Z,4.09
2024-04-30T01:39:21.968Z,4.09
2024-04-30T01:43:25.298Z,4.09
2024-04-30T01:45:26.543Z,4.08
2024-04-30T01:49:29.575Z,4.08
2024-04-30T01:53:31.966Z,4.08
2024-04-30T01:55:33.090Z,4.08
2024-04-30T02:05:40.288Z,4.08
2024-04-30T02:11:44.633Z,4.08
2024-04-30T02:15:46.771Z,4.08
2024-04-30T02:21:51.324Z,4.08
2024-04-30T02:25:54.046Z,4.08
2024-04-30T02:27:55.913Z,4.08
2024-04-30T02:31:58.499Z,4.08
2024-04-30T02:36:01.302Z,4.08
2024-04-30T02:38:02.697Z,4.08
2024-04-30T02:42:04.837Z,4.08
2024-04-30T02:46:08.140Z,4.08
2024-04-30T02:48:09.498Z,4.08
2024-04-30T02:52:12.113Z,4.08
2024-04-30T02:54:13.862Z,4.08
2024-04-30T02:56:15.058Z,4.08
2024-04-30T02:58:16.450Z,4.08
2024-04-30T03:04:21.209Z,4.08
2024-04-30T03:06:22.875Z,4.08
2024-04-30T03:10:26.493Z,4.07
2024-04-30T03:14:29.667Z,4.08
2024-04-30T03:16:31.574Z,4.07
2024-04-30T03:20:34.807Z,4.07
2024-04-30T03:24:37.965Z,4.07
2024-04-30T03:30:41.766Z,4.07
2024-04-30T03:34:45.413Z,4.07
2024-04-30T03:36:46.603Z,4.07
2024-04-30T03:38:48.235Z,4.07
2024-04-30T03:40:49.630Z,4.07
2024-04-30T03:46:53.810Z,4.07
2024-04-30T03:48:55.376Z,4.07
2024-04-30T03:52:58.272Z,4.07
2024-04-30T03:57:00.819Z,4.07
2024-04-30T04:03:05.241Z,4.06
2024-04-30T04:07:07.317Z,4.06
2024-04-30T04:09:08.754Z,4.06
2024-04-30T04:13:11.118Z,4.06
2024-04-30T04:17:14.043Z,4.06
2024-04-30T04:19:15.810Z,4.06
2024-04-30T04:23:18.712Z,4.06
2024-04-30T04:29:22.793Z,4.06
2024-04-30T04:35:26.605Z,4.06
2024-04-30T04:39:28.869Z,4.06
2024-04-30T04:45:33.619Z,4.06
2024-04-30T04:49:36.151Z,4.06
2024-04-30T04:51:37.082Z,4.06
2024-04-30T04:55:40.005Z,4.06
2024-04-30T04:59:42.375Z,4.06
2024-04-30T05:01:44.185Z,4.06
2024-04-30T05:05:46.266Z,4.06
2024-04-30T05:08:31.677Z,4.05
2024-04-30T05:12:34.535Z,4.06
2024-04-30T05:14:35.880Z,4.06
2024-04-30T05:16:37.092Z,4.06
2024-04-30T05:22:40.592Z,4.06
2024-04-30T05:24:42.338Z,4.06
2024-04-30T05:28:45.515Z,4.06
2024-04-30T05:32:48.265Z,4.07
2024-04-30T05:38:52.204Z,4.07
2024-04-30T05:42:54.625Z,4.08
2024-04-30T05:44:55.864Z,4.08
2024-04-30T05:48:58.780Z,4.08
2024-04-30T05:53:02.273Z,4.08
2024-04-30T05:55:03.129Z,4.09
2024-04-30T05:59:05.480Z,4.1
2024-04-30T06:05:09.423Z,4.1
2024-04-30T06:11:13.392Z,4.11
2024-04-30T06:15:16.548Z,4.12
2024-04-30T06:21:26.930Z,4.14
2024-04-30T06:25:23.512Z,4.14
2024-04-30T06:27:25.043Z,4.14
2024-04-30T06:31:27.272Z,4.15
2024-04-30T06:35:29.500Z,4.16
2024-04-30T06:37:30.460Z,4.16
2024-04-30T06:41:33.340Z,4.16
2024-04-30T06:47:37.349Z,4.16
2024-04-30T06:53:41.372Z,4.17
2024-04-30T06:59:45.270Z,4.17
2024-04-30T07:03:47.499Z,4.17
2024-04-30T07:10:00.343Z,4.17
2024-04-30T07:13:53.443Z,4.18
2024-04-30T07:15:54.692Z,4.18
2024-04-30T07:19:57.347Z,4.18
2024-04-30T07:23:59.671Z,4.19
2024-04-30T07:26:00.968Z,4.19
2024-04-30T07:30:03.519Z,4.19
2024-04-30T07:36:06.743Z,4.19
2024-04-30T07:42:10.294Z,4.19
2024-04-30T07:46:12.530Z,4.19
2024-04-30T07:52:16.708Z,4.19
2024-04-30T07:56:19.126Z,4.19
2024-04-30T07:58:20.652Z,4.19
2024-04-30T08:02:23.391Z,4.19
2024-04-30T08:06:25.585Z,4.19
2024-04-30T08:08:26.970Z,4.19
2024-04-30T08:12:29.843Z,4.19
2024-04-30T08:16:32.716Z,4.2
2024-04-30T08:18:34.059Z,4.19
2024-04-30T08:22:37.612Z,4.2
2024-04-30T08:24:38.630Z,4.19
2024-04-30T08:26:39.788Z,4.2
2024-04-30T08:28:40.887Z,4.19
2024-04-30T08:34:44.639Z,4.18
2024-04-30T08:36:46.391Z,4.19
2024-04-30T08:40:48.650Z,4.18
2024-04-30T08:44:50.952Z,4.18
2024-04-30T08:50:55.028Z,4.18
2024-04-30T08:54:57.752Z,4.18
2024-04-30T08:56:58.647Z,4.18
2024-04-30T09:01:01.886Z,4.18
2024-04-30T09:05:04.117Z,4.18
2024-04-30T09:07:05.740Z,4.18
2024-04-30T09:11:08.598Z,4.18
2024-04-30T09:17:12.001Z,4.17
2024-04-30T09:23:16.109Z,4.17
2024-04-30T09:27:19.125Z,4.17
2024-04-30T09:33:22.580Z,4.17
2024-04-30T09:37:24.995Z,4.17
2024-04-30T09:39:26.588Z,4.17
2024-04-30T09:43:28.323Z,4.17
2024-04-30T09:49:32.070Z,4.17
2024-04-30T09:53:35.379Z,4.17
2024-04-30T09:57:37.987Z,4.17
2024-04-30T09:59:38.848Z,4.17
2024-04-30T10:03:41.061Z,4.17
2024-04-30T10:05:42.819Z,4.17
2024-04-30T10:07:44.129Z,4.17
2024-04-30T10:09:45.594Z,4.17
2024-04-30T10:15:48.741Z,4.17
2024-04-30T10:21:52.866Z,4.17
2024-04-30T10:25:55.015Z,4.16
2024-04-30T10:31:59.300Z,4.16
2024-04-30T10:36:00.661Z,4.16
2024-04-30T10:38:02.943Z,4.17
2024-04-30T10:42:04.216Z,4.16
2024-04-30T10:46:07.027Z,4.16
2024-04-30T10:48:08.256Z,4.16
2024-04-30T10:52:11.466Z,4.16
2024-04-30T10:58:15.013Z,4.16
2024-04-30T11:04:18.178Z,4.16
2024-04-30T11:08:21.106Z,4.16
2024-04-30T11:14:24.379Z,4.16
2024-04-30T11:20:27.783Z,4.16
2024-04-30T11:24:29.992Z,4.16
2024-04-30T11:30:33.579Z,4.16
2024-04-30T11:34:36.535Z,4.16
2024-04-30T11:36:37.315Z,4.16
2024-04-30T11:40:39.859Z,4.16
2024-04-30T11:44:42.431Z,4.15
2024-04-30T11:46:43.326Z,4.16
2024-04-30T11:50:45.720Z,4.15
2024-04-30T11:53:30.705Z,4.15
2024-04-30T11:57:33.459Z,4.15
2024-04-30T12:01:36.140Z,4.15
2024-04-30T12:07:40.530Z,4.15
2024-04-30T12:11:42.875Z,4.15
2024-04-30T12:13:44.456Z,4.15
2024-04-30T12:17:46.728Z,4.15
2024-04-30T12:21:48.954Z,4.15
2024-04-30T12:23:50.579Z,4.15
2024-04-30T12:27:53.041Z,4.15
2024-04-30T12:33:57.395Z,4.15
2024-04-30T12:37:59.248Z,4.15
2024-04-30T12:40:02.322Z,4.15
2024-04-30T12:42:01.803Z,4.14
2024-04-30T12:44:02.765Z,4.14
2024-04-30T12:50:07.106Z,4.14
2024-04-30T12:52:08.355Z,4.14
2024-04-30T12:56:10.749Z,4.14
2024-04-30T13:00:13.607Z,4.14
2024-04-30T13:06:17.106Z,4.14
2024-04-30T13:10:19.036Z,4.14
2024-04-30T13:12:20.639Z,4.14
2024-04-30T13:16:23.880Z,4.14
2024-04-30T13:20:26.594Z,4.14
2024-04-30T13:22:28.362Z,4.14
2024-04-30T13:26:30.651Z,4.14
2024-04-30T13:32:33.995Z,4.14
2024-04-30T13:38:37.445Z,4.14
2024-04-30T13:42:39.343Z,4.13
2024-04-30T13:48:43.077Z,4.14
2024-04-30T13:52:45.063Z,4.14
2024-04-30T13:54:45.945Z,4.14
2024-04-30T13:58:48.816Z,4.13
2024-04-30T14:02:51.043Z,4.13
2024-04-30T14:04:52.136Z,4.13
2024-04-30T14:08:54.975Z,4.13
2024-04-30T14:12:56.665Z,4.13
2024-04-30T14:14:57.951Z,4.13
2024-04-30T14:19:00.348Z,4.13
2024-04-30T14:21:01.938Z,4.13
2024-04-30T14:25:03.775Z,4.13
2024-04-30T14:31:07.182Z,4.13
2024-04-30T14:37:10.731Z,4.13
2024-04-30T14:41:12.812Z,4.13
2024-04-30T14:47:17.416Z,4.13
2024-04-30T14:51:19.365Z,4.12
2024-04-30T14:53:20.333Z,4.13
2024-04-30T14:57:22.051Z,4.13
2024-04-30T15:01:24.249Z,4.12
2024-04-30T15:03:25.401Z,4.12
2024-04-30T15:07:28.260Z,4.13
2024-04-30T15:13:32.042Z,4.12
2024-04-30T15:17:34.479Z,4.12
2024-04-30T15:19:35.969Z,4.12
2024-04-30T15:23:38.132Z,4.12
2024-04-30T15:29:41.260Z,4.12
2024-04-30T15:35:45.858Z,4.12
2024-04-30T15:39:47.535Z,4.15
2024-04-30T15:45:52.475Z,4.16
2024-04-30T15:49:55.246Z,4.16
2024-04-30T15:56:10.355Z,4.17
2024-04-30T16:00:01.128Z,4.17
2024-04-30T16:02:02.739Z,4.17
2024-04-30T16:06:05.437Z,4.17
2024-04-30T16:12:10.267Z,4.18
2024-04-30T16:18:14.723Z,4.18
2024-04-30T16:22:17.218Z,4.19
2024-04-30T16:28:20.955Z,4.19
2024-04-30T16:32:23.312Z,4.19
2024-04-30T16:34:24.244Z,4.19
2024-04-30T16:38:27.533Z,4.19
2024-04-30T16:42:30.490Z,4.19
2024-04-30T16:44:36.556Z,4.19
2024-04-30T16:48:34.441Z,4.18
2024-04-30T16:54:37.701Z,4.17
2024-04-30T17:00:41.736Z,4.17
2024-04-30T17:04:43.853Z,4.17
2024-04-30T17:10:47.737Z,4.17
2024-04-30T17:14:49.971Z,4.17
2024-04-30T17:16:50.859Z,4.17
2024-04-30T17:20:53.373Z,4.17
2024-04-30T17:24:56.382Z,4.17
2024-04-30T17:26:57.666Z,4.17
2024-04-30T17:31:00.188Z,4.17
2024-04-30T17:35:02.929Z,4.17
2024-04-30T17:37:04.987Z,4.17
2024-04-30T17:41:07.038Z,4.17
2024-04-30T17:43:08.288Z,4.17
2024-04-30T17:45:09.472Z,4.17
2024-04-30T17:47:11.153Z,4.17
2024-04-30T17:53:14.931Z,4.17
2024-04-30T17:59:18.953Z,4.17
2024-04-30T18:03:21.280Z,4.16
2024-04-30T18:09:26.110Z,4.16
2024-04-30T18:13:28.749Z,4.16
2024-04-30T18:15:30.096Z,4.16
2024-04-30T18:19:32.081Z,4.16
2024-04-30T18:23:34.233Z,4.16
2024-04-30T18:25:35.307Z,4.16
2024-04-30T18:29:38.586Z,4.16
2024-04-30T18:35:42.718Z,4.16
2024-04-30T18:40:29.158Z,4.16
2024-04-30T18:46:32.942Z,4.16
2024-04-30T18:50:35.830Z,4.16
2024-04-30T18:52:37.594Z,4.16
2024-04-30T18:56:39.766Z,4.16
2024-04-30T19:00:42.416Z,4.15
2024-04-30T19:02:44.094Z,4.16
2024-04-30T19:06:47.290Z,4.16
2024-04-30T19:12:51.250Z,4.15
2024-04-30T19:16:53.389Z,4.15
2024-04-30T19:18:54.642Z,4.15
2024-04-30T19:20:56.084Z,4.15
2024-04-30T19:22:56.958Z,4.15
2024-04-30T19:29:01.420Z,4.15
2024-04-30T19:31:02.582Z,4.15
2024-04-30T19:35:05.260Z,4.15
2024-04-30T19:39:07.208Z,4.15
2024-04-30T19:45:11.627Z,4.14
2024-04-30T19:49:14.515Z,4.15
2024-04-30T19:51:16.036Z,4.15
2024-04-30T19:55:18.303Z,4.14
2024-04-30T19:59:20.887Z,4.14
2024-04-30T20:01:22.808Z,4.14
2024-04-30T20:05:25.333Z,4.14
2024-04-30T20:11:29.177Z,4.14
2024-04-30T20:17:33.566Z,4.14
2024-04-30T20:21:36.845Z,4.14
2024-04-30T20:27:40.454Z,4.14
2024-04-30T20:31:42.729Z,4.14
2024-04-30T20:33:44.167Z,4.14
2024-04-30T20:37:47.356Z,4.14
2024-04-30T20:41:50.504Z,4.14
2024-04-30T20:43:51.996Z,4.14
2024-04-30T20:47:55.003Z,4.14
2024-04-30T20:53:58.516Z,4.14
2024-04-30T21:00:02.808Z,4.14
2024-04-30T21:04:05.522Z,4.14
2024-04-30T21:10:09.380Z,4.14
2024-04-30T21:14:12.414Z,4.13
2024-04-30T21:16:14.208Z,4.13
2024-04-30T21:20:16.830Z,4.13
2024-04-30T21:24:19.834Z,4.13
2024-04-30T21:26:21.593Z,4.13
2024-04-30T21:30:23.993Z,4.13
2024-04-30T21:34:26.043Z,4.13
2024-04-30T21:36:36.183Z,4.13
2024-04-30T21:40:30.209Z,4.13
2024-04-30T21:42:31.795Z,4.13
2024-04-30T21:44:32.749Z,4.13
2024-04-30T21:46:33.901Z,4.13
2024-04-30T21:52:38.727Z,4.13
2024-04-30T21:54:40.493Z,4.12
2024-04-30T21:58:43.859Z,4.13
2024-04-30T22:02:46.548Z,4.12
2024-04-30T22:08:51.410Z,4.13
2024-04-30T22:12:54.020Z,4.12
2024-04-30T22:14:55.312Z,4.12
2024-04-30T22:18:57.329Z,4.12
2024-04-30T22:23:00.000Z,4.12
2024-04-30T22:25:01.896Z,4.12
2024-04-30T22:29:04.582Z,4.12
2024-04-30T22:35:08.926Z,4.12
2024-04-30T22:41:12.515Z,4.12
2024-04-30T22:45:15.042Z,4.12
2024-04-30T22:51:19.727Z,4.12
2024-04-30T22:55:23.202Z,4.11
2024-04-30T22:57:24.520Z,4.12
2024-04-30T23:01:27.680Z,4.12
2024-04-30T23:05:30.535Z,4.12
2024-04-30T23:07:31.681Z,4.12
2024-04-30T23:11:34.177Z,4.12
2024-04-30T23:17:38.446Z,4.11
2024-04-30T23:23:42.080Z,4.11
2024-04-30T23:27:44.381Z,4.11
2024-04-30T23:33:48.824Z,4.11
2024-04-30T23:37:51.834Z,4.11
2024-04-30T23:39:52.856Z,4.11
2024-04-30T23:43:55.328Z,4.11
2024-04-30T23:47:57.793Z,4.11
2024-04-30T23:49:59.581Z,4.11
2024-04-30T23:54:02.799Z,4.11
2024-04-30T23:58:05.481Z,4.11
